sensor_id;sensor_type;location;lat;lon;timestamp;pressure;altitude;pressure_sealevel;temperature;humidity
55460;BME280;41326;45.302;-122.946;2024-02-15T00:00:04;100097.83;;;18.15;53.00
55460;BME280;41326;45.302;-122.946;2024-02-15T00:02:33;100093.67;;;18.11;53.14
55460;BME280;41326;45.302;-122.946;2024-02-15T00:05:04;100089.84;;;18.07;53.29
55460;BME280;41326;45.302;-122.946;2024-02-15T00:07:34;100077.57;;;18.02;53.48
55460;BME280;41326;45.302;-122.946;2024-02-15T00:10:05;100073.28;;;18.00;53.73
55460;BME280;41326;45.302;-122.946;2024-02-15T00:12:34;100071.72;;;18.00;54.14
55460;BME280;41326;45.302;-122.946;2024-02-15T00:15:05;100076.51;;;18.01;54.05
55460;BME280;41326;45.302;-122.946;2024-02-15T00:17:34;100080.25;;;18.01;54.13
55460;BME280;41326;45.302;-122.946;2024-02-15T00:20:05;100087.36;;;18.00;53.94
55460;BME280;41326;45.302;-122.946;2024-02-15T00:22:34;100088.51;;;17.96;54.07
55460;BME280;41326;45.302;-122.946;2024-02-15T00:25:05;100087.05;;;17.93;54.27
55460;BME280;41326;45.302;-122.946;2024-02-15T00:27:35;100085.27;;;17.92;54.24
55460;BME280;41326;45.302;-122.946;2024-02-15T00:30:06;100073.74;;;17.90;54.11
55460;BME280;41326;45.302;-122.946;2024-02-15T00:32:35;100080.75;;;17.88;54.48
55460;BME280;41326;45.302;-122.946;2024-02-15T00:35:06;100075.40;;;17.90;54.46
55460;BME280;41326;45.302;-122.946;2024-02-15T00:37:35;100067.40;;;17.94;54.34
55460;BME280;41326;45.302;-122.946;2024-02-15T00:40:07;100067.68;;;18.06;54.06
55460;BME280;41326;45.302;-122.946;2024-02-15T00:42:35;100057.17;;;18.21;53.68
55460;BME280;41326;45.302;-122.946;2024-02-15T00:45:06;100054.24;;;18.37;53.32
55460;BME280;41326;45.302;-122.946;2024-02-15T00:47:36;100058.83;;;18.48;53.05
55460;BME280;41326;45.302;-122.946;2024-02-15T00:50:07;100060.43;;;18.55;52.81
55460;BME280;41326;45.302;-122.946;2024-02-15T00:52:36;100056.34;;;18.55;52.73
55460;BME280;41326;45.302;-122.946;2024-02-15T00:55:06;100057.91;;;18.60;52.75
55460;BME280;41326;45.302;-122.946;2024-02-15T00:57:36;100060.13;;;18.69;52.66
55460;BME280;41326;45.302;-122.946;2024-02-15T01:00:07;100056.34;;;18.81;52.43
55460;BME280;41326;45.302;-122.946;2024-02-15T01:02:36;100055.72;;;18.95;52.11
55460;BME280;41326;45.302;-122.946;2024-02-15T01:05:07;100058.74;;;19.10;51.43
55460;BME280;41326;45.302;-122.946;2024-02-15T01:07:36;100057.81;;;19.18;50.80
55460;BME280;41326;45.302;-122.946;2024-02-15T01:10:08;100052.13;;;19.29;50.87
55460;BME280;41326;45.302;-122.946;2024-02-15T01:12:37;100050.72;;;19.43;50.60
55460;BME280;41326;45.302;-122.946;2024-02-15T01:15:07;100046.43;;;19.46;50.67
55460;BME280;41326;45.302;-122.946;2024-02-15T01:17:37;100042.60;;;19.44;50.78
55460;BME280;41326;45.302;-122.946;2024-02-15T01:20:07;100051.64;;;19.37;51.04
55460;BME280;41326;45.302;-122.946;2024-02-15T01:22:37;100049.12;;;19.37;51.30
55460;BME280;41326;45.302;-122.946;2024-02-15T01:25:07;100047.97;;;19.45;51.45
55460;BME280;41326;45.302;-122.946;2024-02-15T01:27:37;100037.90;;;19.57;51.18
55460;BME280;41326;45.302;-122.946;2024-02-15T01:30:08;100042.55;;;19.63;50.95
55460;BME280;41326;45.302;-122.946;2024-02-15T01:32:37;100041.78;;;19.61;51.12
55460;BME280;41326;45.302;-122.946;2024-02-15T01:35:08;100041.59;;;19.54;51.29
55460;BME280;41326;45.302;-122.946;2024-02-15T01:37:37;100037.29;;;19.44;51.92
55460;BME280;41326;45.302;-122.946;2024-02-15T01:40:08;100036.27;;;19.36;52.13
55460;BME280;41326;45.302;-122.946;2024-02-15T01:42:37;100034.07;;;19.26;52.39
55460;BME280;41326;45.302;-122.946;2024-02-15T01:45:08;100039.43;;;19.26;52.51
55460;BME280;41326;45.302;-122.946;2024-02-15T01:47:38;100041.06;;;19.31;52.51
55460;BME280;41326;45.302;-122.946;2024-02-15T01:50:08;100040.40;;;19.41;52.39
55460;BME280;41326;45.302;-122.946;2024-02-15T01:52:39;100044.29;;;19.45;52.18
55460;BME280;41326;45.302;-122.946;2024-02-15T01:55:08;100042.51;;;19.40;52.28
55460;BME280;41326;45.302;-122.946;2024-02-15T01:57:38;100046.05;;;19.33;52.51
55460;BME280;41326;45.302;-122.946;2024-02-15T02:00:09;100045.46;;;19.24;52.81
55460;BME280;41326;45.302;-122.946;2024-02-15T02:02:39;100050.30;;;19.16;52.99
55460;BME280;41326;45.302;-122.946;2024-02-15T02:05:08;100045.11;;;19.17;53.11
55460;BME280;41326;45.302;-122.946;2024-02-15T02:07:38;100040.09;;;19.26;52.93
55460;BME280;41326;45.302;-122.946;2024-02-15T02:10:09;100037.48;;;19.35;52.74
55460;BME280;41326;45.302;-122.946;2024-02-15T02:12:39;100033.56;;;19.35;52.68
55460;BME280;41326;45.302;-122.946;2024-02-15T02:15:09;100025.41;;;19.30;52.85
55460;BME280;41326;45.302;-122.946;2024-02-15T02:17:38;100023.37;;;19.31;53.00
55460;BME280;41326;45.302;-122.946;2024-02-15T02:20:09;100012.60;;;19.28;53.12
55460;BME280;41326;45.302;-122.946;2024-02-15T02:22:39;100010.69;;;19.22;53.75
55460;BME280;41326;45.302;-122.946;2024-02-15T02:25:09;100015.15;;;19.14;54.18
55460;BME280;41326;45.302;-122.946;2024-02-15T02:27:39;100009.59;;;19.08;54.65
55460;BME280;41326;45.302;-122.946;2024-02-15T02:30:15;100009.80;;;19.03;54.71
55460;BME280;41326;45.302;-122.946;2024-02-15T02:32:39;100017.33;;;18.94;55.15
55460;BME280;41326;45.302;-122.946;2024-02-15T02:35:09;100008.93;;;18.87;55.36
55460;BME280;41326;45.302;-122.946;2024-02-15T02:37:39;100011.51;;;18.82;55.65
55460;BME280;41326;45.302;-122.946;2024-02-15T02:40:10;99995.08;;;18.80;55.44
55460;BME280;41326;45.302;-122.946;2024-02-15T02:42:48;99991.56;;;18.91;55.95
55460;BME280;41326;45.302;-122.946;2024-02-15T02:45:10;99992.55;;;19.11;55.95
55460;BME280;41326;45.302;-122.946;2024-02-15T02:47:40;99998.46;;;19.22;55.91
55460;BME280;41326;45.302;-122.946;2024-02-15T02:50:11;99997.99;;;19.30;55.70
55460;BME280;41326;45.302;-122.946;2024-02-15T02:52:41;99994.20;;;19.34;55.47
55460;BME280;41326;45.302;-122.946;2024-02-15T02:55:11;99990.55;;;19.35;55.51
55460;BME280;41326;45.302;-122.946;2024-02-15T02:57:41;99986.21;;;19.32;55.33
55460;BME280;41326;45.302;-122.946;2024-02-15T03:00:14;99987.97;;;19.26;55.41
55460;BME280;41326;45.302;-122.946;2024-02-15T03:02:41;99979.84;;;19.22;55.60
55460;BME280;41326;45.302;-122.946;2024-02-15T03:05:11;99987.99;;;19.16;55.82
55460;BME280;41326;45.302;-122.946;2024-02-15T03:07:41;99978.91;;;19.09;55.77
55460;BME280;41326;45.302;-122.946;2024-02-15T03:10:11;99983.44;;;19.01;55.54
55460;BME280;41326;45.302;-122.946;2024-02-15T03:12:41;99992.43;;;18.93;55.49
55460;BME280;41326;45.302;-122.946;2024-02-15T03:15:12;99990.17;;;18.90;55.49
55460;BME280;41326;45.302;-122.946;2024-02-15T03:17:43;99991.38;;;18.92;55.17
55460;BME280;41326;45.302;-122.946;2024-02-15T03:20:12;100019.53;;;19.03;54.78
55460;BME280;41326;45.302;-122.946;2024-02-15T03:22:43;100015.74;;;19.11;54.67
55460;BME280;41326;45.302;-122.946;2024-02-15T03:25:12;100006.76;;;19.18;54.72
55460;BME280;41326;45.302;-122.946;2024-02-15T03:27:42;100015.69;;;19.19;54.47
55460;BME280;41326;45.302;-122.946;2024-02-15T03:30:12;100006.66;;;19.17;54.26
55460;BME280;41326;45.302;-122.946;2024-02-15T03:32:42;100003.17;;;19.12;54.29
55460;BME280;41326;45.302;-122.946;2024-02-15T03:35:12;100002.71;;;19.05;54.53
55460;BME280;41326;45.302;-122.946;2024-02-15T03:37:42;99995.79;;;18.97;54.75
55460;BME280;41326;45.302;-122.946;2024-02-15T03:40:12;100001.98;;;18.96;54.66
55460;BME280;41326;45.302;-122.946;2024-02-15T03:42:42;99995.23;;;19.02;54.61
55460;BME280;41326;45.302;-122.946;2024-02-15T03:45:12;99991.24;;;19.12;54.39
55460;BME280;41326;45.302;-122.946;2024-02-15T03:47:42;99988.69;;;19.18;54.47
55460;BME280;41326;45.302;-122.946;2024-02-15T03:50:12;100002.31;;;19.22;54.36
55460;BME280;41326;45.302;-122.946;2024-02-15T03:52:42;100004.60;;;19.24;54.24
55460;BME280;41326;45.302;-122.946;2024-02-15T03:55:12;99995.73;;;19.19;54.33
55460;BME280;41326;45.302;-122.946;2024-02-15T03:57:42;99988.19;;;19.14;54.47
55460;BME280;41326;45.302;-122.946;2024-02-15T04:00:13;99997.38;;;19.08;54.67
55460;BME280;41326;45.302;-122.946;2024-02-15T04:02:43;100001.12;;;19.03;54.78
55460;BME280;41326;45.302;-122.946;2024-02-15T04:05:13;100001.11;;;19.00;54.86
55460;BME280;41326;45.302;-122.946;2024-02-15T04:07:43;100023.14;;;18.97;54.93
55460;BME280;41326;45.302;-122.946;2024-02-15T04:10:13;100025.38;;;18.94;54.91
55460;BME280;41326;45.302;-122.946;2024-02-15T04:12:43;100012.47;;;18.93;54.90
55460;BME280;41326;45.302;-122.946;2024-02-15T04:15:13;100009.42;;;18.90;55.00
55460;BME280;41326;45.302;-122.946;2024-02-15T04:17:43;100005.83;;;18.93;54.94
55460;BME280;41326;45.302;-122.946;2024-02-15T04:20:13;99997.90;;;18.93;54.85
55460;BME280;41326;45.302;-122.946;2024-02-15T04:22:44;99995.97;;;18.92;54.77
55460;BME280;41326;45.302;-122.946;2024-02-15T04:25:14;99996.05;;;18.98;54.73
55460;BME280;41326;45.302;-122.946;2024-02-15T04:27:45;99999.10;;;19.13;54.42
55460;BME280;41326;45.302;-122.946;2024-02-15T04:30:14;99994.57;;;19.18;54.23
55460;BME280;41326;45.302;-122.946;2024-02-15T04:32:44;99998.71;;;19.19;54.15
55460;BME280;41326;45.302;-122.946;2024-02-15T04:35:14;99997.28;;;19.20;54.18
55460;BME280;41326;45.302;-122.946;2024-02-15T04:37:44;99985.94;;;19.17;54.25
55460;BME280;41326;45.302;-122.946;2024-02-15T04:40:14;99991.82;;;19.13;54.39
55460;BME280;41326;45.302;-122.946;2024-02-15T04:42:44;99985.20;;;19.10;54.50
55460;BME280;41326;45.302;-122.946;2024-02-15T04:45:14;99979.05;;;19.06;54.69
55460;BME280;41326;45.302;-122.946;2024-02-15T04:47:44;99976.56;;;19.04;55.09
55460;BME280;41326;45.302;-122.946;2024-02-15T04:50:15;99979.63;;;19.04;55.23
55460;BME280;41326;45.302;-122.946;2024-02-15T04:52:45;99979.27;;;19.03;55.28
55460;BME280;41326;45.302;-122.946;2024-02-15T04:55:15;99978.66;;;18.98;55.45
55460;BME280;41326;45.302;-122.946;2024-02-15T04:57:45;99964.60;;;18.96;55.47
55460;BME280;41326;45.302;-122.946;2024-02-15T05:00:16;99970.10;;;18.95;55.54
55460;BME280;41326;45.302;-122.946;2024-02-15T05:02:45;99966.79;;;18.92;55.64
55460;BME280;41326;45.302;-122.946;2024-02-15T05:05:15;99966.12;;;18.93;55.57
55460;BME280;41326;45.302;-122.946;2024-02-15T05:07:45;99967.30;;;18.87;55.69
55460;BME280;41326;45.302;-122.946;2024-02-15T05:10:16;99970.57;;;18.84;55.64
55460;BME280;41326;45.302;-122.946;2024-02-15T05:12:45;99976.30;;;18.84;55.54
55460;BME280;41326;45.302;-122.946;2024-02-15T05:15:16;99981.29;;;18.81;55.50
55460;BME280;41326;45.302;-122.946;2024-02-15T05:17:45;99982.93;;;18.81;55.40
55460;BME280;41326;45.302;-122.946;2024-02-15T05:20:16;99975.28;;;18.81;55.30
55460;BME280;41326;45.302;-122.946;2024-02-15T05:22:45;99970.07;;;18.75;55.37
55460;BME280;41326;45.302;-122.946;2024-02-15T05:25:16;99963.06;;;18.72;55.36
55460;BME280;41326;45.302;-122.946;2024-02-15T05:27:46;99974.11;;;18.68;55.37
55460;BME280;41326;45.302;-122.946;2024-02-15T05:30:16;99970.63;;;18.66;55.30
55460;BME280;41326;45.302;-122.946;2024-02-15T05:32:46;99972.46;;;18.66;55.20
55460;BME280;41326;45.302;-122.946;2024-02-15T05:35:16;99972.02;;;18.63;55.23
55460;BME280;41326;45.302;-122.946;2024-02-15T05:37:46;99967.04;;;18.59;55.29
55460;BME280;41326;45.302;-122.946;2024-02-15T05:40:16;99965.94;;;18.55;55.32
55460;BME280;41326;45.302;-122.946;2024-02-15T05:42:46;99968.91;;;18.49;55.45
55460;BME280;41326;45.302;-122.946;2024-02-15T05:47:46;99959.59;;;18.46;55.44
55460;BME280;41326;45.302;-122.946;2024-02-15T05:50:16;99958.52;;;18.44;55.42
55460;BME280;41326;45.302;-122.946;2024-02-15T05:52:46;99959.04;;;18.42;55.47
55460;BME280;41326;45.302;-122.946;2024-02-15T05:55:17;99957.53;;;18.38;55.59
55460;BME280;41326;45.302;-122.946;2024-02-15T05:57:47;99961.14;;;18.36;55.68
55460;BME280;41326;45.302;-122.946;2024-02-15T06:00:17;99967.08;;;18.37;55.66
55460;BME280;41326;45.302;-122.946;2024-02-15T06:02:47;99970.68;;;18.34;55.75
55460;BME280;41326;45.302;-122.946;2024-02-15T06:05:17;99958.62;;;18.33;55.84
55460;BME280;41326;45.302;-122.946;2024-02-15T06:07:47;99958.33;;;18.31;55.89
55460;BME280;41326;45.302;-122.946;2024-02-15T06:10:17;99965.41;;;18.31;55.96
55460;BME280;41326;45.302;-122.946;2024-02-15T06:12:47;99964.59;;;18.30;55.99
55460;BME280;41326;45.302;-122.946;2024-02-15T06:15:18;99969.30;;;18.30;56.04
55460;BME280;41326;45.302;-122.946;2024-02-15T06:17:47;99969.67;;;18.33;55.99
55460;BME280;41326;45.302;-122.946;2024-02-15T06:20:18;99967.81;;;18.34;55.92
55460;BME280;41326;45.302;-122.946;2024-02-15T06:22:48;99968.17;;;18.32;55.99
55460;BME280;41326;45.302;-122.946;2024-02-15T06:25:18;99966.27;;;18.24;56.23
55460;BME280;41326;45.302;-122.946;2024-02-15T06:27:48;99968.87;;;18.22;56.31
55460;BME280;41326;45.302;-122.946;2024-02-15T06:30:18;99973.18;;;18.21;56.38
55460;BME280;41326;45.302;-122.946;2024-02-15T06:32:48;99976.37;;;18.19;56.42
55460;BME280;41326;45.302;-122.946;2024-02-15T06:35:18;99971.79;;;18.16;56.56
55460;BME280;41326;45.302;-122.946;2024-02-15T06:37:48;99970.46;;;18.15;56.58
55460;BME280;41326;45.302;-122.946;2024-02-15T06:40:18;99970.98;;;18.12;56.62
55460;BME280;41326;45.302;-122.946;2024-02-15T06:42:48;99965.24;;;18.10;56.70
55460;BME280;41326;45.302;-122.946;2024-02-15T06:45:18;99965.46;;;18.08;56.78
55460;BME280;41326;45.302;-122.946;2024-02-15T06:47:48;99967.33;;;18.05;56.85
55460;BME280;41326;45.302;-122.946;2024-02-15T06:50:19;99971.00;;;18.04;56.88
55460;BME280;41326;45.302;-122.946;2024-02-15T06:52:48;99966.28;;;18.04;56.91
55460;BME280;41326;45.302;-122.946;2024-02-15T06:55:19;99965.76;;;18.04;56.87
55460;BME280;41326;45.302;-122.946;2024-02-15T06:57:49;99960.01;;;18.02;56.92
55460;BME280;41326;45.302;-122.946;2024-02-15T07:00:19;99958.18;;;18.01;56.89
55460;BME280;41326;45.302;-122.946;2024-02-15T07:02:49;99967.18;;;17.99;56.98
55460;BME280;41326;45.302;-122.946;2024-02-15T07:05:19;99974.59;;;17.97;57.04
55460;BME280;41326;45.302;-122.946;2024-02-15T07:07:49;99961.58;;;17.95;57.07
55460;BME280;41326;45.302;-122.946;2024-02-15T07:10:19;99963.97;;;17.92;57.18
55460;BME280;41326;45.302;-122.946;2024-02-15T07:12:49;99965.95;;;17.94;57.10
55460;BME280;41326;45.302;-122.946;2024-02-15T07:15:19;99962.64;;;17.94;57.08
55460;BME280;41326;45.302;-122.946;2024-02-15T07:17:49;99960.65;;;17.94;57.08
55460;BME280;41326;45.302;-122.946;2024-02-15T07:20:19;99964.02;;;17.98;56.96
55460;BME280;41326;45.302;-122.946;2024-02-15T07:22:50;99964.39;;;17.97;56.97
55460;BME280;41326;45.302;-122.946;2024-02-15T07:25:20;99959.07;;;17.95;56.98
55460;BME280;41326;45.302;-122.946;2024-02-15T07:27:50;99959.85;;;17.94;57.01
55460;BME280;41326;45.302;-122.946;2024-02-15T07:30:20;99962.36;;;17.91;57.04
55460;BME280;41326;45.302;-122.946;2024-02-15T07:32:50;99962.39;;;17.91;57.08
55460;BME280;41326;45.302;-122.946;2024-02-15T07:35:20;99966.44;;;17.89;57.14
55460;BME280;41326;45.302;-122.946;2024-02-15T07:37:54;99967.12;;;17.86;57.23
55460;BME280;41326;45.302;-122.946;2024-02-15T07:40:20;99967.19;;;17.84;57.37
55460;BME280;41326;45.302;-122.946;2024-02-15T07:42:51;99968.19;;;17.81;57.46
55460;BME280;41326;45.302;-122.946;2024-02-15T07:45:20;99972.22;;;17.77;57.60
55460;BME280;41326;45.302;-122.946;2024-02-15T07:47:50;99969.44;;;17.75;57.65
55460;BME280;41326;45.302;-122.946;2024-02-15T07:50:21;99972.14;;;17.70;57.82
55460;BME280;41326;45.302;-122.946;2024-02-15T07:52:51;99972.09;;;17.64;58.04
55460;BME280;41326;45.302;-122.946;2024-02-15T07:55:21;99969.38;;;17.65;58.07
55460;BME280;41326;45.302;-122.946;2024-02-15T07:57:51;99969.04;;;17.59;58.25
55460;BME280;41326;45.302;-122.946;2024-02-15T08:00:22;99965.56;;;17.59;58.29
55460;BME280;41326;45.302;-122.946;2024-02-15T08:02:51;99970.85;;;17.58;58.30
55460;BME280;41326;45.302;-122.946;2024-02-15T08:05:21;99972.33;;;17.58;58.33
55460;BME280;41326;45.302;-122.946;2024-02-15T08:07:51;99969.11;;;17.56;58.39
55460;BME280;41326;45.302;-122.946;2024-02-15T08:10:21;99960.17;;;17.54;58.41
55460;BME280;41326;45.302;-122.946;2024-02-15T08:12:52;99964.07;;;17.51;58.48
55460;BME280;41326;45.302;-122.946;2024-02-15T08:15:22;99968.07;;;17.53;58.45
55460;BME280;41326;45.302;-122.946;2024-02-15T08:17:52;99969.56;;;17.54;58.49
55460;BME280;41326;45.302;-122.946;2024-02-15T08:20:22;99971.45;;;17.56;58.41
55460;BME280;41326;45.302;-122.946;2024-02-15T08:22:52;99968.81;;;17.54;58.49
55460;BME280;41326;45.302;-122.946;2024-02-15T08:25:22;99967.93;;;17.50;58.61
55460;BME280;41326;45.302;-122.946;2024-02-15T08:27:52;99968.56;;;17.48;58.69
55460;BME280;41326;45.302;-122.946;2024-02-15T08:30:23;99962.29;;;17.46;58.78
55460;BME280;41326;45.302;-122.946;2024-02-15T08:32:52;99963.66;;;17.41;58.82
55460;BME280;41326;45.302;-122.946;2024-02-15T08:35:22;99958.49;;;17.38;58.96
55460;BME280;41326;45.302;-122.946;2024-02-15T08:37:52;99959.87;;;17.36;59.02
55460;BME280;41326;45.302;-122.946;2024-02-15T08:40:22;99958.37;;;17.37;59.02
55460;BME280;41326;45.302;-122.946;2024-02-15T08:42:53;99959.17;;;17.37;59.09
55460;BME280;41326;45.302;-122.946;2024-02-15T08:45:23;99960.08;;;17.35;59.18
55460;BME280;41326;45.302;-122.946;2024-02-15T08:47:53;99964.55;;;17.31;59.34
55460;BME280;41326;45.302;-122.946;2024-02-15T08:50:23;99961.23;;;17.29;59.35
55460;BME280;41326;45.302;-122.946;2024-02-15T08:52:53;99963.03;;;17.32;59.21
55460;BME280;41326;45.302;-122.946;2024-02-15T08:55:23;99957.47;;;17.31;59.24
55460;BME280;41326;45.302;-122.946;2024-02-15T08:57:53;99960.81;;;17.28;59.42
55460;BME280;41326;45.302;-122.946;2024-02-15T09:00:23;99964.61;;;17.27;59.54
55460;BME280;41326;45.302;-122.946;2024-02-15T09:02:53;99966.66;;;17.27;59.57
55460;BME280;41326;45.302;-122.946;2024-02-15T09:05:23;99971.66;;;17.27;59.54
55460;BME280;41326;45.302;-122.946;2024-02-15T09:07:54;99968.04;;;17.25;59.70
55460;BME280;41326;45.302;-122.946;2024-02-15T09:10:23;99971.48;;;17.22;59.72
55460;BME280;41326;45.302;-122.946;2024-02-15T09:12:53;99973.26;;;17.20;59.77
55460;BME280;41326;45.302;-122.946;2024-02-15T09:15:24;99977.04;;;17.24;59.71
55460;BME280;41326;45.302;-122.946;2024-02-15T09:17:54;99976.93;;;17.27;59.63
55460;BME280;41326;45.302;-122.946;2024-02-15T09:20:24;99981.35;;;17.28;59.60
55460;BME280;41326;45.302;-122.946;2024-02-15T09:22:54;99976.79;;;17.25;59.71
55460;BME280;41326;45.302;-122.946;2024-02-15T09:25:24;99978.74;;;17.22;59.79
55460;BME280;41326;45.302;-122.946;2024-02-15T09:27:54;99987.10;;;17.22;59.81
55460;BME280;41326;45.302;-122.946;2024-02-15T09:30:25;99986.45;;;17.19;59.84
55460;BME280;41326;45.302;-122.946;2024-02-15T09:32:54;99988.52;;;17.19;59.94
55460;BME280;41326;45.302;-122.946;2024-02-15T09:35:24;99987.06;;;17.18;60.00
55460;BME280;41326;45.302;-122.946;2024-02-15T09:37:54;99986.29;;;17.15;60.01
55460;BME280;41326;45.302;-122.946;2024-02-15T09:40:24;99982.68;;;17.16;60.01
55460;BME280;41326;45.302;-122.946;2024-02-15T09:42:55;99987.64;;;17.16;60.01
55460;BME280;41326;45.302;-122.946;2024-02-15T09:45:25;99997.93;;;17.16;60.03
55460;BME280;41326;45.302;-122.946;2024-02-15T09:47:56;100004.51;;;17.16;60.03
55460;BME280;41326;45.302;-122.946;2024-02-15T09:50:26;100008.77;;;17.14;60.08
55460;BME280;41326;45.302;-122.946;2024-02-15T09:52:55;100003.72;;;17.13;60.06
55460;BME280;41326;45.302;-122.946;2024-02-15T09:55:25;100009.05;;;17.12;60.13
55460;BME280;41326;45.302;-122.946;2024-02-15T09:57:55;100011.96;;;17.11;60.15
55460;BME280;41326;45.302;-122.946;2024-02-15T10:00:25;100015.88;;;17.10;60.18
55460;BME280;41326;45.302;-122.946;2024-02-15T10:02:55;100023.38;;;17.09;60.23
55460;BME280;41326;45.302;-122.946;2024-02-15T10:05:25;100033.29;;;17.09;60.13
55460;BME280;41326;45.302;-122.946;2024-02-15T10:07:55;100033.57;;;17.13;59.99
55460;BME280;41326;45.302;-122.946;2024-02-15T10:10:26;100037.77;;;17.13;59.91
55460;BME280;41326;45.302;-122.946;2024-02-15T10:12:56;100036.58;;;17.13;59.87
55460;BME280;41326;45.302;-122.946;2024-02-15T10:15:31;100037.97;;;17.14;59.80
55460;BME280;41326;45.302;-122.946;2024-02-15T10:17:56;100043.27;;;17.18;59.66
55460;BME280;41326;45.302;-122.946;2024-02-15T10:20:26;100046.52;;;17.22;59.53
55460;BME280;41326;45.302;-122.946;2024-02-15T10:23:11;100052.41;;;17.21;59.56
55460;BME280;41326;45.302;-122.946;2024-02-15T10:25:27;100058.50;;;17.17;59.68
55460;BME280;41326;45.302;-122.946;2024-02-15T10:28:01;100073.28;;;17.14;59.79
55460;BME280;41326;45.302;-122.946;2024-02-15T10:30:27;100081.23;;;17.14;59.77
55460;BME280;41326;45.302;-122.946;2024-02-15T10:32:56;100081.79;;;17.12;59.79
55460;BME280;41326;45.302;-122.946;2024-02-15T10:35:26;100082.55;;;17.11;59.77
55460;BME280;41326;45.302;-122.946;2024-02-15T10:40:27;100087.05;;;17.08;59.85
55460;BME280;41326;45.302;-122.946;2024-02-15T10:42:59;100093.23;;;17.08;59.86
55460;BME280;41326;45.302;-122.946;2024-02-15T10:45:27;100084.28;;;17.10;59.78
55460;BME280;41326;45.302;-122.946;2024-02-15T10:47:57;100083.86;;;17.07;59.83
55460;BME280;41326;45.302;-122.946;2024-02-15T10:50:27;100089.85;;;17.06;59.86
55460;BME280;41326;45.302;-122.946;2024-02-15T10:52:58;100100.37;;;17.07;59.76
55460;BME280;41326;45.302;-122.946;2024-02-15T10:55:37;100095.47;;;17.05;59.84
55460;BME280;41326;45.302;-122.946;2024-02-15T10:58:01;100111.45;;;17.06;59.79
55460;BME280;41326;45.302;-122.946;2024-02-15T11:00:28;100108.25;;;17.04;59.86
55460;BME280;41326;45.302;-122.946;2024-02-15T11:03:01;100115.08;;;17.04;59.87
55460;BME280;41326;45.302;-122.946;2024-02-15T11:05:27;100112.79;;;17.03;59.87
55460;BME280;41326;45.302;-122.946;2024-02-15T11:07:57;100123.88;;;17.04;59.84
55460;BME280;41326;45.302;-122.946;2024-02-15T11:10:27;100126.46;;;17.03;59.85
55460;BME280;41326;45.302;-122.946;2024-02-15T11:12:58;100134.80;;;17.03;59.78
55460;BME280;41326;45.302;-122.946;2024-02-15T11:15:41;100143.51;;;17.03;59.80
55460;BME280;41326;45.302;-122.946;2024-02-15T11:17:58;100149.38;;;17.09;59.63
55460;BME280;41326;45.302;-122.946;2024-02-15T11:22:58;100165.89;;;17.10;59.59
55460;BME280;41326;45.302;-122.946;2024-02-15T11:25:32;100174.17;;;17.08;59.67
55460;BME280;41326;45.302;-122.946;2024-02-15T11:27:58;100178.37;;;17.05;59.76
55460;BME280;41326;45.302;-122.946;2024-02-15T11:30:32;100179.05;;;17.04;59.75
55460;BME280;41326;45.302;-122.946;2024-02-15T11:32:58;100186.94;;;17.03;59.76
55460;BME280;41326;45.302;-122.946;2024-02-15T11:35:28;100191.39;;;17.03;59.77
55460;BME280;41326;45.302;-122.946;2024-02-15T11:37:59;100193.63;;;17.00;59.83
55460;BME280;41326;45.302;-122.946;2024-02-15T11:40:29;100195.90;;;16.99;59.96
55460;BME280;41326;45.302;-122.946;2024-02-15T11:43:00;100203.99;;;16.97;60.12
55460;BME280;41326;45.302;-122.946;2024-02-15T11:45:29;100207.63;;;16.97;60.11
55460;BME280;41326;45.302;-122.946;2024-02-15T11:47:59;100215.10;;;16.97;60.12
55460;BME280;41326;45.302;-122.946;2024-02-15T11:50:30;100225.03;;;16.99;59.99
55460;BME280;41326;45.302;-122.946;2024-02-15T11:53:05;100232.99;;;17.00;59.99
55460;BME280;41326;45.302;-122.946;2024-02-15T11:55:29;100234.71;;;16.97;60.16
55460;BME280;41326;45.302;-122.946;2024-02-15T11:58:00;100236.31;;;16.93;60.28
55460;BME280;41326;45.302;-122.946;2024-02-15T12:00:29;100236.68;;;16.92;60.31
55460;BME280;41326;45.302;-122.946;2024-02-15T12:03:00;100243.50;;;16.91;60.33
55460;BME280;41326;45.302;-122.946;2024-02-15T12:05:29;100251.77;;;16.89;60.36
55460;BME280;41326;45.302;-122.946;2024-02-15T12:07:59;100257.28;;;16.87;60.35
55460;BME280;41326;45.302;-122.946;2024-02-15T12:10:29;100265.41;;;16.86;60.29
55460;BME280;41326;45.302;-122.946;2024-02-15T12:13:00;100272.26;;;16.82;60.34
55460;BME280;41326;45.302;-122.946;2024-02-15T12:15:30;100277.97;;;16.83;60.23
55460;BME280;41326;45.302;-122.946;2024-02-15T12:20:30;100297.13;;;16.87;59.94
55460;BME280;41326;45.302;-122.946;2024-02-15T12:23:00;100304.62;;;16.85;59.95
55460;BME280;41326;45.302;-122.946;2024-02-15T12:25:30;100311.24;;;16.84;59.91
55460;BME280;41326;45.302;-122.946;2024-02-15T12:28:01;100317.04;;;16.80;60.01
55460;BME280;41326;45.302;-122.946;2024-02-15T12:30:34;100323.53;;;16.76;60.00
55460;BME280;41326;45.302;-122.946;2024-02-15T12:35:30;100332.45;;;16.70;60.03
55460;BME280;41326;45.302;-122.946;2024-02-15T12:38:04;100339.00;;;16.69;60.03
55460;BME280;41326;45.302;-122.946;2024-02-15T12:40:32;100338.24;;;16.67;60.06
55460;BME280;41326;45.302;-122.946;2024-02-15T12:43:01;100346.69;;;16.65;60.13
55460;BME280;41326;45.302;-122.946;2024-02-15T12:45:31;100353.72;;;16.65;60.10
55460;BME280;41326;45.302;-122.946;2024-02-15T12:48:05;100361.02;;;16.64;60.08
55460;BME280;41326;45.302;-122.946;2024-02-15T12:50:31;100365.62;;;16.63;59.98